Terminal Aerodrome Forecast
Issued by NWS Paducah, KY

Home | Current Version | Previous Version | Text Only | Print | Product List | Glossary On
Versions: 1 2 3 4 5 6 7 8 9 10 11 12 13 14 15 16
000
FTUS43 KPAH 271100
TAFEVV
TAF
KEVV 271120Z 2712/2812 21006KT P6SM BKN120
     FM271400 26014G22KT P6SM SCT035 BKN150
     FM272200 29014G24KT P6SM SKC
     FM280100 31010KT P6SM SKC=

USA.gov is the U.S. government's official web portal to all federal, state and local government web resources and services.